createdAt,value
2023-03-24T00:02:00.140Z,10.47
2023-03-24T00:04:32.995Z,10.45
2023-03-24T00:07:05.124Z,10.51
2023-03-24T00:09:37.705Z,10.50
2023-03-24T00:12:11.733Z,10.49
2023-03-24T00:14:45.588Z,10.42
2023-03-24T00:17:19.174Z,10.35
2023-03-24T00:19:51.335Z,10.31
2023-03-24T00:22:23.513Z,10.25
2023-03-24T00:24:55.980Z,10.20
2023-03-24T00:27:29.590Z,10.19
2023-03-24T00:30:03.488Z,10.21
2023-03-24T00:32:38.403Z,10.20
2023-03-24T00:35:12.998Z,10.21
2023-03-24T00:37:46.077Z,10.24
2023-03-24T00:40:21.014Z,10.23
2023-03-24T00:42:53.400Z,10.23
2023-03-24T00:45:26.203Z,10.27
2023-03-24T00:47:58.556Z,10.26
2023-03-24T00:50:32.217Z,10.27
2023-03-24T00:53:04.335Z,10.27
2023-03-24T00:55:38.135Z,10.26
2023-03-24T00:58:10.377Z,10.25
2023-03-24T01:00:42.752Z,10.30
2023-03-24T01:03:15.556Z,10.30
2023-03-24T01:05:48.630Z,10.29
2023-03-24T01:08:21.801Z,10.33
2023-03-24T01:10:54.253Z,10.34
2023-03-24T01:13:29.419Z,10.36
2023-03-24T01:16:01.441Z,10.38
2023-03-24T01:18:35.052Z,10.40
2023-03-24T01:21:07.553Z,10.41
2023-03-24T01:23:42.069Z,10.45
2023-03-24T01:26:14.180Z,10.47
2023-03-24T01:28:46.236Z,10.46
2023-03-24T01:31:18.215Z,10.46
2023-03-24T01:33:50.497Z,10.43
2023-03-24T01:36:22.764Z,10.27
2023-03-24T01:38:54.753Z,10.20
2023-03-24T01:41:28.976Z,9.98
2023-03-24T01:44:01.676Z,9.86
2023-03-24T01:46:34.308Z,9.84
2023-03-24T01:49:08.694Z,9.82
2023-03-24T01:51:46.261Z,9.83
2023-03-24T01:54:45.248Z,9.86
2023-03-24T01:57:29.892Z,9.88
2023-03-24T02:00:05.321Z,9.93
2023-03-24T02:02:49.764Z,9.99
2023-03-24T02:05:26.593Z,10.02
2023-03-24T02:08:07.478Z,10.03
2023-03-24T02:10:39.883Z,10.02
2023-03-24T02:13:12.497Z,10.02
2023-03-24T02:15:51.160Z,10.05
2023-03-24T02:18:29.138Z,10.09
2023-03-24T02:21:13.395Z,10.15
2023-03-24T02:24:00.551Z,10.22
2023-03-24T02:26:47.382Z,10.31
2023-03-24T02:29:47.858Z,10.38
2023-03-24T02:32:46.651Z,10.41
2023-03-24T02:35:21.603Z,10.45
2023-03-24T02:38:05.458Z,10.47
2023-03-24T02:40:40.585Z,10.49
2023-03-24T02:43:38.141Z,10.53
2023-03-24T02:46:22.091Z,10.55
2023-03-24T02:49:13.486Z,10.59
2023-03-24T02:52:06.785Z,10.61
2023-03-24T02:54:55.027Z,10.63
2023-03-24T02:57:41.611Z,10.67
2023-03-24T03:00:42.181Z,10.67
2023-03-24T03:03:24.411Z,10.69
2023-03-24T03:06:00.799Z,10.69
2023-03-24T03:08:35.177Z,10.69
2023-03-24T03:11:09.830Z,10.70
2023-03-24T03:13:47.398Z,10.71
2023-03-24T03:16:28.331Z,10.72
2023-03-24T03:19:03.588Z,10.70
2023-03-24T03:21:39.261Z,10.71
2023-03-24T03:24:15.617Z,10.69
2023-03-24T03:26:49.649Z,10.70
2023-03-24T03:29:24.152Z,10.68
2023-03-24T03:32:01.914Z,10.71
2023-03-24T03:35:09.324Z,10.92
2023-03-24T03:38:04.300Z,10.77
2023-03-24T03:40:56.948Z,10.76
2023-03-24T03:43:33.179Z,10.76
2023-03-24T03:46:09.272Z,10.73
2023-03-24T03:48:42.721Z,10.62
2023-03-24T03:51:16.349Z,10.50
2023-03-24T03:53:53.298Z,10.40
2023-03-24T03:56:29.435Z,10.26
2023-03-24T03:59:08.653Z,10.09
2023-03-24T04:01:42.397Z,9.95
2023-03-24T04:04:28.106Z,9.82
2023-03-24T04:07:28.632Z,9.72
2023-03-24T04:10:08.713Z,9.63
2023-03-24T04:13:05.739Z,9.57
2023-03-24T04:15:57.920Z,9.45
2023-03-24T04:19:07.108Z,9.35
2023-03-24T04:21:52.045Z,9.27
2023-03-24T04:24:36.656Z,9.18
2023-03-24T04:27:25.986Z,9.11
2023-03-24T04:30:23.640Z,9.08
2023-03-24T04:33:01.742Z,9.05
2023-03-24T04:35:42.654Z,9.01
2023-03-24T04:38:26.563Z,9.01
2023-03-24T04:41:02.068Z,8.98
2023-03-24T04:43:38.375Z,8.97
2023-03-24T04:46:12.697Z,8.96
2023-03-24T04:48:52.794Z,8.96
2023-03-24T04:51:30.007Z,8.97
2023-03-24T04:54:08.325Z,8.99
2023-03-24T04:56:56.037Z,8.96
2023-03-24T04:59:31.429Z,8.93
2023-03-24T05:02:04.628Z,8.93
2023-03-24T05:04:38.536Z,8.93
2023-03-24T05:07:20.270Z,8.95
2023-03-24T05:09:54.332Z,8.91
2023-03-24T05:12:26.708Z,8.91
2023-03-24T05:15:01.320Z,8.85
2023-03-24T05:17:34.439Z,8.86
2023-03-24T05:20:11.912Z,8.86
2023-03-24T05:22:46.821Z,8.88
2023-03-24T05:25:20.716Z,8.89
2023-03-24T05:27:53.729Z,9.05
2023-03-24T05:30:27.820Z,8.97
2023-03-24T05:33:02.010Z,8.99
2023-03-24T05:35:34.548Z,9.18
2023-03-24T05:38:06.962Z,9.03
2023-03-24T05:40:39.505Z,9.03
2023-03-24T05:43:16.791Z,9.02
2023-03-24T05:45:50.970Z,9.06
2023-03-24T05:48:31.077Z,9.09
2023-03-24T05:51:05.347Z,9.08
2023-03-24T05:53:37.780Z,9.10
2023-03-24T05:56:15.061Z,9.12
2023-03-24T05:59:06.051Z,9.16
2023-03-24T06:01:45.673Z,9.18
2023-03-24T06:04:21.071Z,9.20
2023-03-24T06:06:56.040Z,9.21
2023-03-24T06:09:33.118Z,9.20
2023-03-24T06:12:07.519Z,9.22
2023-03-24T06:14:41.464Z,9.25
2023-03-24T06:17:15.881Z,9.27
2023-03-24T06:19:50.239Z,9.28
2023-03-24T06:22:43.517Z,9.25
2023-03-24T06:25:24.457Z,9.26
2023-03-24T06:27:59.973Z,9.30
2023-03-24T06:30:32.424Z,9.29
2023-03-24T06:33:07.107Z,9.29
2023-03-24T06:35:39.803Z,9.27
2023-03-24T06:38:14.426Z,9.27
2023-03-24T06:40:47.132Z,9.29
2023-03-24T06:43:19.834Z,9.33
2023-03-24T06:45:52.466Z,9.38
2023-03-24T06:48:26.791Z,9.40
2023-03-24T06:51:02.067Z,9.45
2023-03-24T06:53:34.640Z,9.46
2023-03-24T06:56:07.781Z,9.51
2023-03-24T06:58:41.097Z,9.53
2023-03-24T07:01:15.081Z,9.71
2023-03-24T07:04:01.462Z,9.55
2023-03-24T07:06:50.918Z,9.49
2023-03-24T07:09:14.726Z,9.47
2023-03-24T07:11:47.428Z,9.44
2023-03-24T07:14:22.268Z,9.46
2023-03-24T07:16:55.202Z,9.44
2023-03-24T07:19:31.381Z,9.43
2023-03-24T07:22:04.804Z,9.43
2023-03-24T07:24:38.688Z,9.43
2023-03-24T07:27:12.649Z,9.44
2023-03-24T07:29:45.303Z,9.42
2023-03-24T07:32:25.061Z,9.40
2023-03-24T07:34:58.425Z,9.37
2023-03-24T07:37:30.980Z,9.36
2023-03-24T07:40:04.828Z,9.34
2023-03-24T07:42:37.033Z,9.36
2023-03-24T07:45:27.631Z,9.41
2023-03-24T07:48:04.924Z,9.37
2023-03-24T07:50:40.414Z,9.36
2023-03-24T07:53:18.834Z,9.35
2023-03-24T07:55:51.338Z,9.39
2023-03-24T07:58:26.849Z,9.41
2023-03-24T08:01:14.164Z,9.48
2023-03-24T08:03:49.550Z,9.51
2023-03-24T08:06:23.692Z,9.53
2023-03-24T08:08:57.036Z,9.50
2023-03-24T08:11:30.137Z,9.51
2023-03-24T08:14:03.432Z,9.48
2023-03-24T08:16:36.669Z,9.49
2023-03-24T08:19:09.411Z,9.49
2023-03-24T08:21:41.829Z,9.52
2023-03-24T08:24:13.953Z,9.54
2023-03-24T08:26:46.895Z,9.54
2023-03-24T08:29:19.083Z,9.54
2023-03-24T08:31:51.163Z,9.57
2023-03-24T08:34:25.180Z,9.58
2023-03-24T08:36:57.571Z,9.63
2023-03-24T08:39:31.212Z,9.74
2023-03-24T08:42:03.631Z,9.83
2023-03-24T08:44:36.067Z,9.92
2023-03-24T08:47:08.064Z,9.95
2023-03-24T08:49:40.322Z,9.94
2023-03-24T08:52:12.712Z,9.92
2023-03-24T08:54:44.885Z,9.86
2023-03-24T08:57:18.063Z,9.87
2023-03-24T08:59:51.511Z,9.92
2023-03-24T09:02:24.222Z,9.94
2023-03-24T09:04:56.928Z,9.98
2023-03-24T09:07:28.938Z,10.05
2023-03-24T09:10:01.197Z,10.12
2023-03-24T09:12:33.604Z,10.17
2023-03-24T09:15:10.100Z,10.18
2023-03-24T09:17:43.868Z,10.18
2023-03-24T09:20:17.782Z,10.17
2023-03-24T09:22:50.161Z,10.17
2023-03-24T09:25:23.537Z,10.18
2023-03-24T09:27:57.171Z,10.12
2023-03-24T09:30:31.319Z,10.10
2023-03-24T09:33:05.267Z,10.09
2023-03-24T09:35:37.529Z,10.14
2023-03-24T09:38:11.221Z,10.16
2023-03-24T09:40:44.290Z,10.20
2023-03-24T09:43:24.981Z,10.27
2023-03-24T09:45:59.958Z,10.25
2023-03-24T09:48:44.244Z,10.22
2023-03-24T09:51:25.074Z,10.18
2023-03-24T09:54:03.081Z,10.05
2023-03-24T09:56:41.135Z,10.00
2023-03-24T09:59:35.987Z,9.95
2023-03-24T10:02:20.439Z,9.89
2023-03-24T10:04:52.669Z,9.92
2023-03-24T10:07:36.288Z,9.92
2023-03-24T10:10:16.947Z,9.81
2023-03-24T10:12:50.992Z,9.80
2023-03-24T10:15:37.364Z,9.68
2023-03-24T10:18:32.802Z,9.68
2023-03-24T10:21:13.962Z,9.83
2023-03-24T10:23:57.846Z,9.83
2023-03-24T10:26:50.327Z,9.91
2023-03-24T10:29:37.071Z,9.99
2023-03-24T10:32:24.478Z,10.08
2023-03-24T10:35:04.120Z,10.18
2023-03-24T10:37:36.968Z,10.23
2023-03-24T10:40:18.565Z,10.26
2023-03-24T10:43:06.940Z,10.32
2023-03-24T10:45:30.698Z,10.48
2023-03-24T10:48:04.643Z,10.66
2023-03-24T10:50:38.325Z,10.80
2023-03-24T10:53:18.786Z,10.94
2023-03-24T10:55:51.181Z,10.95
2023-03-24T10:58:38.049Z,10.88
2023-03-24T11:01:27.534Z,10.90
2023-03-24T11:04:07.687Z,10.85
2023-03-24T11:06:40.057Z,10.88
2023-03-24T11:09:18.290Z,10.92
2023-03-24T11:11:51.792Z,11.01
2023-03-24T11:14:27.265Z,11.10
2023-03-24T11:17:16.360Z,11.13
2023-03-24T11:19:56.787Z,11.23
2023-03-24T11:22:28.737Z,11.58
2023-03-24T11:25:01.290Z,11.81
2023-03-24T11:27:34.349Z,12.24
2023-03-24T11:30:08.473Z,12.60
2023-03-24T11:32:42.401Z,12.98
2023-03-24T11:35:17.998Z,13.44
2023-03-24T11:37:50.408Z,13.32
2023-03-24T11:40:25.552Z,13.36
2023-03-24T11:43:00.204Z,13.33
2023-03-24T11:45:44.209Z,13.26
2023-03-24T11:48:19.575Z,13.14
2023-03-24T11:50:53.862Z,13.02
2023-03-24T11:53:29.424Z,12.87
2023-03-24T11:56:16.191Z,12.68
2023-03-24T11:58:51.411Z,12.51
2023-03-24T12:01:29.307Z,12.49
2023-03-24T12:04:21.214Z,12.46
2023-03-24T12:07:14.790Z,12.51
2023-03-24T12:09:58.705Z,12.73
2023-03-24T12:12:45.191Z,13.02
2023-03-24T12:15:35.300Z,13.13
2023-03-24T12:18:15.841Z,13.45
2023-03-24T12:21:10.026Z,13.36
2023-03-24T12:23:54.179Z,13.21
2023-03-24T12:26:34.187Z,13.10
2023-03-24T12:29:24.379Z,12.97
2023-03-24T12:32:18.963Z,12.89
2023-03-24T12:35:03.077Z,13.30
2023-03-24T12:37:47.454Z,13.67
2023-03-24T12:40:37.729Z,13.91
2023-03-24T12:43:30.925Z,14.11
2023-03-24T12:46:17.835Z,14.16
2023-03-24T12:49:00.064Z,14.28
2023-03-24T12:51:54.603Z,14.32
2023-03-24T12:54:35.274Z,14.93
2023-03-24T12:57:10.272Z,16.22
2023-03-24T12:59:47.658Z,17.20
2023-03-24T13:02:46.547Z,16.95
2023-03-24T13:05:21.720Z,16.40
2023-03-24T13:07:58.124Z,15.72
2023-03-24T13:10:32.958Z,15.61
2023-03-24T13:13:14.761Z,16.51
2023-03-24T13:15:58.683Z,18.21
2023-03-24T13:18:50.597Z,20.70
2023-03-24T13:21:29.491Z,22.49
2023-03-24T13:24:12.876Z,23.13
2023-03-24T13:27:05.803Z,22.12
2023-03-24T13:29:48.435Z,22.59
2023-03-24T13:32:26.737Z,22.88
2023-03-24T13:35:34.545Z,23.56
2023-03-24T13:38:21.984Z,22.92
2023-03-24T13:40:56.526Z,22.27
2023-03-24T13:43:29.753Z,22.22
2023-03-24T13:46:10.065Z,22.99
2023-03-24T13:48:58.044Z,22.11
2023-03-24T13:51:35.323Z,21.80
2023-03-24T13:54:16.422Z,20.78
2023-03-24T13:56:57.623Z,19.66
2023-03-24T14:00:02.899Z,18.45
2023-03-24T14:02:54.234Z,17.41
2023-03-24T14:06:05.903Z,16.44
2023-03-24T14:08:56.454Z,15.11
2023-03-24T14:11:41.804Z,15.11
2023-03-24T14:14:20.740Z,14.70
2023-03-24T14:17:08.054Z,14.83
2023-03-24T14:20:05.403Z,14.72
2023-03-24T14:22:44.063Z,14.34
2023-03-24T14:25:24.926Z,13.95
2023-03-24T14:28:22.891Z,13.70
2023-03-24T14:31:16.163Z,13.33
2023-03-24T14:34:02.764Z,13.00
2023-03-24T14:36:41.242Z,12.80
2023-03-24T14:39:36.094Z,12.71
2023-03-24T14:42:30.491Z,12.64
2023-03-24T14:45:14.074Z,12.51
2023-03-24T14:47:43.352Z,12.50
2023-03-24T14:50:24.000Z,12.38
2023-03-24T14:53:01.723Z,12.24
2023-03-24T14:55:36.074Z,12.31
2023-03-24T14:58:36.060Z,12.11
2023-03-24T15:01:11.381Z,12.11
2023-03-24T15:03:48.354Z,12.16
2023-03-24T15:06:25.704Z,11.96
2023-03-24T15:09:01.354Z,11.83
2023-03-24T15:11:36.487Z,11.75
2023-03-24T15:14:16.073Z,11.70
2023-03-24T15:16:53.709Z,11.64
2023-03-24T15:19:31.528Z,11.57
2023-03-24T15:22:06.786Z,11.55
2023-03-24T15:24:40.294Z,11.40
2023-03-24T15:27:25.078Z,11.37
2023-03-24T15:30:00.413Z,11.32
2023-03-24T15:32:34.917Z,11.26
2023-03-24T15:35:09.401Z,11.28
2023-03-24T15:37:43.367Z,11.17
2023-03-24T15:40:32.782Z,11.28
2023-03-24T15:43:09.838Z,11.09
2023-03-24T15:45:57.803Z,11.03
2023-03-24T15:48:26.623Z,10.98
2023-03-24T15:51:04.305Z,10.91
2023-03-24T15:53:51.683Z,10.87
2023-03-24T15:56:32.050Z,10.83
2023-03-24T15:59:13.665Z,10.83
2023-03-24T16:01:46.328Z,10.78
2023-03-24T16:04:23.451Z,10.76
2023-03-24T16:06:58.075Z,10.73
2023-03-24T16:09:31.229Z,10.71
2023-03-24T16:12:05.843Z,10.92
2023-03-24T16:14:38.877Z,10.67
2023-03-24T16:17:11.352Z,10.65
2023-03-24T16:19:43.441Z,10.64
2023-03-24T16:22:15.485Z,10.64
2023-03-24T16:24:47.700Z,10.55
2023-03-24T16:27:20.046Z,10.52
2023-03-24T16:29:52.757Z,10.50
2023-03-24T16:32:24.987Z,10.50
2023-03-24T16:34:57.157Z,10.48
2023-03-24T16:37:29.175Z,10.44
2023-03-24T16:40:03.582Z,10.42
2023-03-24T16:42:34.587Z,10.47
2023-03-24T16:45:07.447Z,10.45
2023-03-24T16:47:39.972Z,10.37
2023-03-24T16:50:38.783Z,10.37
2023-03-24T16:53:11.163Z,10.43
2023-03-24T16:55:45.311Z,10.37
2023-03-24T16:58:18.389Z,10.31
2023-03-24T17:00:51.849Z,10.31
2023-03-24T17:03:24.433Z,10.30
2023-03-24T17:05:57.167Z,10.45
2023-03-24T17:08:30.219Z,10.26
2023-03-24T17:11:03.008Z,10.18
2023-03-24T17:13:35.479Z,10.12
2023-03-24T17:16:09.937Z,10.02
2023-03-24T17:18:42.261Z,9.95
2023-03-24T17:21:17.596Z,9.81
2023-03-24T17:23:51.051Z,9.70
2023-03-24T17:26:24.181Z,9.61
2023-03-24T17:28:56.812Z,9.48
2023-03-24T17:31:29.093Z,9.37
2023-03-24T17:34:08.537Z,9.30
2023-03-24T17:36:35.156Z,9.24
2023-03-24T17:39:08.924Z,9.22
2023-03-24T17:41:42.175Z,9.10
2023-03-24T17:44:14.331Z,9.05
2023-03-24T17:46:46.529Z,8.96
2023-03-24T17:49:18.639Z,8.97
2023-03-24T17:51:50.847Z,9.03
2023-03-24T17:54:23.095Z,9.06
2023-03-24T17:56:55.093Z,9.06
2023-03-24T17:59:27.186Z,8.97
2023-03-24T18:01:59.357Z,8.89
2023-03-24T18:04:33.121Z,8.84
2023-03-24T18:07:07.730Z,8.84
2023-03-24T18:09:44.389Z,8.80
2023-03-24T18:12:16.612Z,8.74
2023-03-24T18:14:48.762Z,8.69
2023-03-24T18:17:21.987Z,8.65
2023-03-24T18:19:54.264Z,8.61
2023-03-24T18:22:27.713Z,8.58
2023-03-24T18:25:01.415Z,8.52
2023-03-24T18:27:33.796Z,8.50
2023-03-24T18:30:07.724Z,8.46
2023-03-24T18:32:40.797Z,8.43
2023-03-24T18:35:17.852Z,8.42
2023-03-24T18:37:49.905Z,8.43
2023-03-24T18:40:22.080Z,8.43
2023-03-24T18:42:54.030Z,8.46
2023-03-24T18:45:26.442Z,8.45
2023-03-24T18:47:58.506Z,8.45
2023-03-24T18:50:30.666Z,8.43
2023-03-24T18:53:03.421Z,8.41
2023-03-24T18:55:35.778Z,8.40
2023-03-24T18:58:09.351Z,8.36
2023-03-24T19:00:43.181Z,8.29
2023-03-24T19:03:15.395Z,8.23
2023-03-24T19:05:49.716Z,8.19
2023-03-24T19:08:21.977Z,8.12
2023-03-24T19:10:58.112Z,8.23
2023-03-24T19:13:30.535Z,8.06
2023-03-24T19:16:02.713Z,8.00
2023-03-24T19:18:34.930Z,7.93
2023-03-24T19:21:07.932Z,7.87
2023-03-24T19:23:40.056Z,7.86
2023-03-24T19:26:12.575Z,7.85
2023-03-24T19:28:45.018Z,7.83
2023-03-24T19:31:19.290Z,7.85
2023-03-24T19:33:52.443Z,7.85
2023-03-24T19:36:26.414Z,7.86
2023-03-24T19:38:58.322Z,7.83
2023-03-24T19:41:30.489Z,7.84
2023-03-24T19:44:02.861Z,7.86
2023-03-24T19:46:34.981Z,7.90
2023-03-24T19:49:07.165Z,7.94
2023-03-24T19:51:39.220Z,7.98
2023-03-24T19:54:11.536Z,7.94
2023-03-24T19:56:43.673Z,7.94
2023-03-24T19:59:15.877Z,7.93
2023-03-24T20:01:48.125Z,7.91
2023-03-24T20:04:20.489Z,7.88
2023-03-24T20:06:52.803Z,7.84
2023-03-24T20:09:24.896Z,7.84
2023-03-24T20:11:57.025Z,7.78
2023-03-24T20:14:47.277Z,7.72
2023-03-24T20:17:21.621Z,7.68
2023-03-24T20:19:54.378Z,7.66
2023-03-24T20:22:26.097Z,7.75
2023-03-24T20:24:58.197Z,7.59
2023-03-24T20:27:30.998Z,7.57
2023-03-24T20:30:03.505Z,7.55
2023-03-24T20:32:35.998Z,7.52
2023-03-24T20:35:09.234Z,7.49
2023-03-24T20:37:41.538Z,7.50
2023-03-24T20:40:13.854Z,7.50
2023-03-24T20:42:46.188Z,7.46
2023-03-24T20:45:18.396Z,7.44
2023-03-24T20:47:50.873Z,7.43
2023-03-24T20:50:23.058Z,7.44
2023-03-24T20:52:54.978Z,7.44
2023-03-24T20:55:27.533Z,7.47
2023-03-24T20:58:01.371Z,7.51
2023-03-24T21:00:33.409Z,7.55
2023-03-24T21:03:06.263Z,7.56
2023-03-24T21:05:38.746Z,7.61
2023-03-24T21:08:10.728Z,7.59
2023-03-24T21:10:43.019Z,7.64
2023-03-24T21:13:16.958Z,7.65
2023-03-24T21:15:49.472Z,7.67
2023-03-24T21:18:22.118Z,7.70
2023-03-24T21:20:58.210Z,7.74
2023-03-24T21:23:37.986Z,7.78
2023-03-24T21:26:15.898Z,7.83
2023-03-24T21:28:47.879Z,7.86
2023-03-24T21:31:30.656Z,7.89
2023-03-24T21:34:02.644Z,7.89
2023-03-24T21:36:35.676Z,7.91
2023-03-24T21:39:09.308Z,7.90
2023-03-24T21:41:41.477Z,7.93
2023-03-24T21:44:13.533Z,7.96
2023-03-24T21:46:47.240Z,7.98
2023-03-24T21:49:19.389Z,7.98
2023-03-24T21:51:53.105Z,8.01
2023-03-24T21:54:26.922Z,8.02
2023-03-24T21:57:01.817Z,8.07
2023-03-24T21:59:34.041Z,8.06
2023-03-24T22:02:08.322Z,8.02
2023-03-24T22:04:41.823Z,7.96
2023-03-24T22:07:16.605Z,7.97
2023-03-24T22:09:50.306Z,7.97
2023-03-24T22:12:22.333Z,7.97
2023-03-24T22:14:54.375Z,7.98
2023-03-24T22:17:26.827Z,7.96
2023-03-24T22:19:59.103Z,7.99
2023-03-24T22:22:33.420Z,7.99
2023-03-24T22:25:07.246Z,8.02
2023-03-24T22:27:39.351Z,8.02
2023-03-24T22:30:13.068Z,8.02
2023-03-24T22:32:46.190Z,8.02
2023-03-24T22:35:18.533Z,8.05
2023-03-24T22:37:50.616Z,8.02
2023-03-24T22:40:22.975Z,7.98
2023-03-24T22:42:54.826Z,7.92
2023-03-24T22:45:27.174Z,7.85
2023-03-24T22:47:59.199Z,7.77
2023-03-24T22:50:31.668Z,7.72
2023-03-24T22:53:03.733Z,7.67
2023-03-24T22:55:35.847Z,7.58
2023-03-24T22:58:07.792Z,7.51
2023-03-24T23:00:41.152Z,7.44
2023-03-24T23:03:13.544Z,7.39
2023-03-24T23:05:47.165Z,7.38
2023-03-24T23:08:19.497Z,7.35
2023-03-24T23:10:51.807Z,7.33
2023-03-24T23:13:25.587Z,7.28
2023-03-24T23:15:57.819Z,7.24
2023-03-24T23:18:30.512Z,7.22
2023-03-24T23:21:11.247Z,7.17
2023-03-24T23:23:44.080Z,7.16
2023-03-24T23:26:26.505Z,7.15
2023-03-24T23:28:51.446Z,7.17
2023-03-24T23:31:26.338Z,7.17
2023-03-24T23:33:59.338Z,7.12
2023-03-24T23:36:32.986Z,7.13
2023-03-24T23:39:05.538Z,7.12
2023-03-24T23:41:37.708Z,7.10
2023-03-24T23:44:11.537Z,7.09
2023-03-24T23:46:43.549Z,7.09
2023-03-24T23:49:15.883Z,7.12
2023-03-24T23:51:47.892Z,7.12
2023-03-24T23:54:20.078Z,7.17
2023-03-24T23:56:53.909Z,7.19
2023-03-24T23:59:26.234Z,7.22
